sensor_id;sensor_type;location;lat;lon;timestamp;temperature;humidity
50804;DHT22;37205;51.434;6.756;2022-08-21T00:02:24;19.70;99.90
50804;DHT22;37205;51.434;6.756;2022-08-21T00:04:51;19.80;99.90
50804;DHT22;37205;51.434;6.756;2022-08-21T00:07:20;19.80;99.90
50804;DHT22;37205;51.434;6.756;2022-08-21T00:09:46;19.80;99.90
50804;DHT22;37205;51.434;6.756;2022-08-21T00:12:12;19.80;99.90
50804;DHT22;37205;51.434;6.756;2022-08-21T00:14:39;19.80;99.90
50804;DHT22;37205;51.434;6.756;2022-08-21T00:17:05;19.80;99.90
50804;DHT22;37205;51.434;6.756;2022-08-21T00:19:31;19.80;99.90
50804;DHT22;37205;51.434;6.756;2022-08-21T00:21:57;19.80;99.90
50804;DHT22;37205;51.434;6.756;2022-08-21T00:24:24;19.80;99.90
50804;DHT22;37205;51.434;6.756;2022-08-21T00:26:50;19.80;99.90
50804;DHT22;37205;51.434;6.756;2022-08-21T00:29:16;19.80;99.90
50804;DHT22;37205;51.434;6.756;2022-08-21T00:31:43;19.70;99.90
50804;DHT22;37205;51.434;6.756;2022-08-21T00:34:09;19.70;99.90
50804;DHT22;37205;51.434;6.756;2022-08-21T00:36:36;19.70;99.90
50804;DHT22;37205;51.434;6.756;2022-08-21T00:39:05;19.60;99.90
50804;DHT22;37205;51.434;6.756;2022-08-21T00:41:31;19.60;99.90
50804;DHT22;37205;51.434;6.756;2022-08-21T00:43:56;19.60;99.90
50804;DHT22;37205;51.434;6.756;2022-08-21T00:46:22;19.50;99.90
50804;DHT22;37205;51.434;6.756;2022-08-21T00:48:48;19.50;99.90
50804;DHT22;37205;51.434;6.756;2022-08-21T00:51:20;19.40;99.90
50804;DHT22;37205;51.434;6.756;2022-08-21T00:53:59;19.40;99.90
50804;DHT22;37205;51.434;6.756;2022-08-21T00:56:26;19.30;99.90
50804;DHT22;37205;51.434;6.756;2022-08-21T00:58:52;19.30;99.90
50804;DHT22;37205;51.434;6.756;2022-08-21T01:01:19;19.30;99.90
50804;DHT22;37205;51.434;6.756;2022-08-21T01:03:46;19.30;99.90
50804;DHT22;37205;51.434;6.756;2022-08-21T01:06:12;19.20;99.90
50804;DHT22;37205;51.434;6.756;2022-08-21T01:08:38;19.20;99.90
50804;DHT22;37205;51.434;6.756;2022-08-21T01:11:04;19.20;99.90
50804;DHT22;37205;51.434;6.756;2022-08-21T01:13:32;19.10;99.90
50804;DHT22;37205;51.434;6.756;2022-08-21T01:16:00;19.20;99.90
50804;DHT22;37205;51.434;6.756;2022-08-21T01:18:28;19.10;99.90
50804;DHT22;37205;51.434;6.756;2022-08-21T01:21:17;19.10;99.90
50804;DHT22;37205;51.434;6.756;2022-08-21T01:23:47;19.10;99.90
50804;DHT22;37205;51.434;6.756;2022-08-21T01:26:15;19.00;99.90
50804;DHT22;37205;51.434;6.756;2022-08-21T01:28:49;18.90;99.90
50804;DHT22;37205;51.434;6.756;2022-08-21T01:31:20;18.90;99.90
50804;DHT22;37205;51.434;6.756;2022-08-21T01:33:46;18.90;99.90
50804;DHT22;37205;51.434;6.756;2022-08-21T01:36:12;18.90;99.90
50804;DHT22;37205;51.434;6.756;2022-08-21T01:38:37;18.80;99.90
50804;DHT22;37205;51.434;6.756;2022-08-21T01:41:03;18.70;99.90
50804;DHT22;37205;51.434;6.756;2022-08-21T01:43:29;18.70;99.90
50804;DHT22;37205;51.434;6.756;2022-08-21T01:45:54;18.70;99.90
50804;DHT22;37205;51.434;6.756;2022-08-21T01:48:41;18.60;99.90
50804;DHT22;37205;51.434;6.756;2022-08-21T01:51:07;18.60;99.90
50804;DHT22;37205;51.434;6.756;2022-08-21T01:53:33;18.50;99.90
50804;DHT22;37205;51.434;6.756;2022-08-21T01:56:01;18.50;99.90
50804;DHT22;37205;51.434;6.756;2022-08-21T01:58:27;18.50;99.90
50804;DHT22;37205;51.434;6.756;2022-08-21T02:00:53;18.50;99.90
50804;DHT22;37205;51.434;6.756;2022-08-21T02:03:19;18.40;99.90
50804;DHT22;37205;51.434;6.756;2022-08-21T02:05:45;18.40;99.90
50804;DHT22;37205;51.434;6.756;2022-08-21T02:08:11;18.30;99.90
50804;DHT22;37205;51.434;6.756;2022-08-21T02:10:36;18.30;99.90
50804;DHT22;37205;51.434;6.756;2022-08-21T02:13:02;18.30;99.90
50804;DHT22;37205;51.434;6.756;2022-08-21T02:15:29;18.30;99.90
50804;DHT22;37205;51.434;6.756;2022-08-21T02:17:58;18.20;99.90
50804;DHT22;37205;51.434;6.756;2022-08-21T02:20:32;18.20;99.90
50804;DHT22;37205;51.434;6.756;2022-08-21T02:22:58;18.20;99.90
50804;DHT22;37205;51.434;6.756;2022-08-21T02:25:25;18.20;99.90
50804;DHT22;37205;51.434;6.756;2022-08-21T02:27:54;18.20;99.90
50804;DHT22;37205;51.434;6.756;2022-08-21T02:30:30;18.20;99.90
50804;DHT22;37205;51.434;6.756;2022-08-21T02:32:56;18.20;99.90
50804;DHT22;37205;51.434;6.756;2022-08-21T02:35:22;18.20;99.90
50804;DHT22;37205;51.434;6.756;2022-08-21T02:37:52;18.10;99.90
50804;DHT22;37205;51.434;6.756;2022-08-21T02:40:21;18.10;99.90
50804;DHT22;37205;51.434;6.756;2022-08-21T02:42:46;18.10;99.90
50804;DHT22;37205;51.434;6.756;2022-08-21T02:45:13;18.10;99.90
50804;DHT22;37205;51.434;6.756;2022-08-21T02:47:39;18.10;99.90
50804;DHT22;37205;51.434;6.756;2022-08-21T02:50:07;18.10;99.90
50804;DHT22;37205;51.434;6.756;2022-08-21T02:52:33;18.00;99.90
50804;DHT22;37205;51.434;6.756;2022-08-21T02:54:59;18.00;99.90
50804;DHT22;37205;51.434;6.756;2022-08-21T02:57:25;18.00;99.90
50804;DHT22;37205;51.434;6.756;2022-08-21T02:59:50;18.00;99.90
50804;DHT22;37205;51.434;6.756;2022-08-21T03:02:16;17.90;99.90
50804;DHT22;37205;51.434;6.756;2022-08-21T03:04:41;17.90;99.90
50804;DHT22;37205;51.434;6.756;2022-08-21T03:07:07;17.90;99.90
50804;DHT22;37205;51.434;6.756;2022-08-21T03:09:32;17.90;99.90
50804;DHT22;37205;51.434;6.756;2022-08-21T03:11:59;17.90;99.90
50804;DHT22;37205;51.434;6.756;2022-08-21T03:14:25;17.90;99.90
50804;DHT22;37205;51.434;6.756;2022-08-21T03:16:51;17.90;99.90
50804;DHT22;37205;51.434;6.756;2022-08-21T03:19:16;17.80;99.90
50804;DHT22;37205;51.434;6.756;2022-08-21T03:21:42;17.80;99.90
50804;DHT22;37205;51.434;6.756;2022-08-21T03:24:07;17.80;99.90
50804;DHT22;37205;51.434;6.756;2022-08-21T03:26:34;17.80;99.90
50804;DHT22;37205;51.434;6.756;2022-08-21T03:29:00;17.80;99.90
50804;DHT22;37205;51.434;6.756;2022-08-21T03:31:26;17.80;99.90
50804;DHT22;37205;51.434;6.756;2022-08-21T03:33:56;17.80;99.90
50804;DHT22;37205;51.434;6.756;2022-08-21T03:36:21;17.70;99.90
50804;DHT22;37205;51.434;6.756;2022-08-21T03:38:47;17.70;99.90
50804;DHT22;37205;51.434;6.756;2022-08-21T03:41:13;17.70;99.90
50804;DHT22;37205;51.434;6.756;2022-08-21T03:43:38;17.60;99.90
50804;DHT22;37205;51.434;6.756;2022-08-21T03:46:05;17.60;99.90
50804;DHT22;37205;51.434;6.756;2022-08-21T03:48:32;17.60;99.90
50804;DHT22;37205;51.434;6.756;2022-08-21T03:50:58;17.60;99.90
50804;DHT22;37205;51.434;6.756;2022-08-21T03:53:24;17.60;99.90
50804;DHT22;37205;51.434;6.756;2022-08-21T03:55:51;17.50;99.90
50804;DHT22;37205;51.434;6.756;2022-08-21T03:58:19;17.60;99.90
50804;DHT22;37205;51.434;6.756;2022-08-21T04:00:47;17.50;99.90
50804;DHT22;37205;51.434;6.756;2022-08-21T04:03:13;17.50;99.90
50804;DHT22;37205;51.434;6.756;2022-08-21T04:05:39;17.50;99.90
50804;DHT22;37205;51.434;6.756;2022-08-21T04:08:06;17.40;99.90
50804;DHT22;37205;51.434;6.756;2022-08-21T04:10:35;17.40;99.90
50804;DHT22;37205;51.434;6.756;2022-08-21T04:13:02;17.40;99.90
50804;DHT22;37205;51.434;6.756;2022-08-21T04:15:28;17.30;99.90
50804;DHT22;37205;51.434;6.756;2022-08-21T04:17:54;17.30;99.90
50804;DHT22;37205;51.434;6.756;2022-08-21T04:20:21;17.30;99.90
50804;DHT22;37205;51.434;6.756;2022-08-21T04:22:47;17.30;99.90
50804;DHT22;37205;51.434;6.756;2022-08-21T04:25:14;17.20;99.90
50804;DHT22;37205;51.434;6.756;2022-08-21T04:27:40;17.20;99.90
50804;DHT22;37205;51.434;6.756;2022-08-21T04:30:08;17.20;99.90
50804;DHT22;37205;51.434;6.756;2022-08-21T04:32:37;17.20;99.90
50804;DHT22;37205;51.434;6.756;2022-08-21T04:35:06;17.20;99.90
50804;DHT22;37205;51.434;6.756;2022-08-21T04:37:32;17.20;99.90
50804;DHT22;37205;51.434;6.756;2022-08-21T04:39:57;17.10;99.90
50804;DHT22;37205;51.434;6.756;2022-08-21T04:42:27;17.10;99.90
50804;DHT22;37205;51.434;6.756;2022-08-21T04:44:54;17.10;99.90
50804;DHT22;37205;51.434;6.756;2022-08-21T04:47:20;17.10;99.90
50804;DHT22;37205;51.434;6.756;2022-08-21T04:49:47;17.10;99.90
50804;DHT22;37205;51.434;6.756;2022-08-21T04:52:17;17.10;99.90
50804;DHT22;37205;51.434;6.756;2022-08-21T04:54:45;17.10;99.90
50804;DHT22;37205;51.434;6.756;2022-08-21T04:57:11;17.10;99.90
50804;DHT22;37205;51.434;6.756;2022-08-21T04:59:48;17.10;99.90
50804;DHT22;37205;51.434;6.756;2022-08-21T05:02:14;17.10;99.90
50804;DHT22;37205;51.434;6.756;2022-08-21T05:04:52;17.00;99.90
50804;DHT22;37205;51.434;6.756;2022-08-21T05:07:22;17.00;99.90
50804;DHT22;37205;51.434;6.756;2022-08-21T05:09:48;17.00;99.90
50804;DHT22;37205;51.434;6.756;2022-08-21T05:12:14;17.00;99.90
50804;DHT22;37205;51.434;6.756;2022-08-21T05:14:40;17.00;99.90
50804;DHT22;37205;51.434;6.756;2022-08-21T05:17:07;16.90;99.90
50804;DHT22;37205;51.434;6.756;2022-08-21T05:19:34;16.90;99.90
50804;DHT22;37205;51.434;6.756;2022-08-21T05:22:00;16.90;99.90
50804;DHT22;37205;51.434;6.756;2022-08-21T05:24:26;17.00;99.90
50804;DHT22;37205;51.434;6.756;2022-08-21T05:26:52;17.00;99.90
50804;DHT22;37205;51.434;6.756;2022-08-21T05:29:18;17.00;99.90
50804;DHT22;37205;51.434;6.756;2022-08-21T05:31:45;17.00;99.90
50804;DHT22;37205;51.434;6.756;2022-08-21T05:34:13;17.00;99.90
50804;DHT22;37205;51.434;6.756;2022-08-21T05:36:39;17.00;99.90
50804;DHT22;37205;51.434;6.756;2022-08-21T05:39:04;17.00;99.90
50804;DHT22;37205;51.434;6.756;2022-08-21T05:41:30;17.00;99.90
50804;DHT22;37205;51.434;6.756;2022-08-21T05:43:55;17.00;99.90
50804;DHT22;37205;51.434;6.756;2022-08-21T05:46:21;17.00;99.90
50804;DHT22;37205;51.434;6.756;2022-08-21T05:48:47;17.10;99.90
50804;DHT22;37205;51.434;6.756;2022-08-21T05:51:14;17.00;99.90
50804;DHT22;37205;51.434;6.756;2022-08-21T05:53:42;17.00;99.90
50804;DHT22;37205;51.434;6.756;2022-08-21T05:56:08;17.00;99.90
50804;DHT22;37205;51.434;6.756;2022-08-21T05:58:34;17.00;99.90
50804;DHT22;37205;51.434;6.756;2022-08-21T06:01:02;17.00;99.90
50804;DHT22;37205;51.434;6.756;2022-08-21T06:03:30;17.00;99.90
50804;DHT22;37205;51.434;6.756;2022-08-21T06:05:56;17.00;99.90
50804;DHT22;37205;51.434;6.756;2022-08-21T06:08:23;17.00;99.90
50804;DHT22;37205;51.434;6.756;2022-08-21T06:10:50;17.00;99.90
50804;DHT22;37205;51.434;6.756;2022-08-21T06:13:18;17.10;99.90
50804;DHT22;37205;51.434;6.756;2022-08-21T06:15:44;17.10;99.90
50804;DHT22;37205;51.434;6.756;2022-08-21T06:18:10;17.10;99.90
50804;DHT22;37205;51.434;6.756;2022-08-21T06:20:36;17.20;99.90
50804;DHT22;37205;51.434;6.756;2022-08-21T06:23:02;17.20;99.90
50804;DHT22;37205;51.434;6.756;2022-08-21T06:25:28;17.30;99.90
50804;DHT22;37205;51.434;6.756;2022-08-21T06:28:01;17.40;99.90
50804;DHT22;37205;51.434;6.756;2022-08-21T06:30:27;17.40;99.90
50804;DHT22;37205;51.434;6.756;2022-08-21T06:32:52;17.40;99.90
50804;DHT22;37205;51.434;6.756;2022-08-21T06:35:18;17.50;99.90
50804;DHT22;37205;51.434;6.756;2022-08-21T06:37:43;17.50;99.90
50804;DHT22;37205;51.434;6.756;2022-08-21T06:40:09;17.60;99.90
50804;DHT22;37205;51.434;6.756;2022-08-21T06:42:35;17.60;99.90
50804;DHT22;37205;51.434;6.756;2022-08-21T06:45:01;17.60;99.90
50804;DHT22;37205;51.434;6.756;2022-08-21T06:47:26;17.70;99.90
50804;DHT22;37205;51.434;6.756;2022-08-21T06:49:52;17.80;99.90
50804;DHT22;37205;51.434;6.756;2022-08-21T06:52:17;17.70;99.90
50804;DHT22;37205;51.434;6.756;2022-08-21T06:54:43;17.80;99.90
50804;DHT22;37205;51.434;6.756;2022-08-21T06:57:09;17.80;99.90
50804;DHT22;37205;51.434;6.756;2022-08-21T06:59:35;17.90;99.90
50804;DHT22;37205;51.434;6.756;2022-08-21T07:02:00;18.00;99.90
50804;DHT22;37205;51.434;6.756;2022-08-21T07:04:26;18.00;99.90
50804;DHT22;37205;51.434;6.756;2022-08-21T07:06:52;18.10;99.90
50804;DHT22;37205;51.434;6.756;2022-08-21T07:09:17;18.10;99.90
50804;DHT22;37205;51.434;6.756;2022-08-21T07:11:45;18.20;99.90
50804;DHT22;37205;51.434;6.756;2022-08-21T07:14:12;18.20;99.90
50804;DHT22;37205;51.434;6.756;2022-08-21T07:16:38;18.30;99.90
50804;DHT22;37205;51.434;6.756;2022-08-21T07:19:04;18.30;99.90
50804;DHT22;37205;51.434;6.756;2022-08-21T07:21:29;18.30;99.90
50804;DHT22;37205;51.434;6.756;2022-08-21T07:23:55;18.40;99.90
50804;DHT22;37205;51.434;6.756;2022-08-21T07:26:22;18.40;99.90
50804;DHT22;37205;51.434;6.756;2022-08-21T07:28:49;18.50;99.90
50804;DHT22;37205;51.434;6.756;2022-08-21T07:31:16;18.50;99.90
50804;DHT22;37205;51.434;6.756;2022-08-21T07:33:43;18.60;99.90
50804;DHT22;37205;51.434;6.756;2022-08-21T07:36:09;18.60;99.90
50804;DHT22;37205;51.434;6.756;2022-08-21T07:38:35;18.60;99.90
50804;DHT22;37205;51.434;6.756;2022-08-21T07:41:02;18.70;99.90
50804;DHT22;37205;51.434;6.756;2022-08-21T07:43:30;18.70;99.90
50804;DHT22;37205;51.434;6.756;2022-08-21T07:45:56;18.80;99.90
50804;DHT22;37205;51.434;6.756;2022-08-21T07:48:22;18.80;99.90
50804;DHT22;37205;51.434;6.756;2022-08-21T07:50:49;18.80;99.90
50804;DHT22;37205;51.434;6.756;2022-08-21T07:53:15;18.90;99.90
50804;DHT22;37205;51.434;6.756;2022-08-21T07:55:41;18.90;99.90
50804;DHT22;37205;51.434;6.756;2022-08-21T07:58:07;18.90;99.90
50804;DHT22;37205;51.434;6.756;2022-08-21T08:00:32;19.00;99.90
50804;DHT22;37205;51.434;6.756;2022-08-21T08:02:59;19.00;99.90
50804;DHT22;37205;51.434;6.756;2022-08-21T08:05:27;19.10;99.90
50804;DHT22;37205;51.434;6.756;2022-08-21T08:07:53;19.10;99.90
50804;DHT22;37205;51.434;6.756;2022-08-21T08:10:20;19.10;99.90
50804;DHT22;37205;51.434;6.756;2022-08-21T08:12:46;19.10;99.90
50804;DHT22;37205;51.434;6.756;2022-08-21T08:15:17;19.20;99.90
50804;DHT22;37205;51.434;6.756;2022-08-21T08:17:43;19.20;99.90
50804;DHT22;37205;51.434;6.756;2022-08-21T08:20:10;19.30;99.90
50804;DHT22;37205;51.434;6.756;2022-08-21T08:22:37;19.30;99.90
50804;DHT22;37205;51.434;6.756;2022-08-21T08:25:05;19.30;99.90
50804;DHT22;37205;51.434;6.756;2022-08-21T08:27:31;19.40;99.90
50804;DHT22;37205;51.434;6.756;2022-08-21T08:29:57;19.50;99.90
50804;DHT22;37205;51.434;6.756;2022-08-21T08:32:23;19.50;99.90
50804;DHT22;37205;51.434;6.756;2022-08-21T08:34:49;19.60;99.90
50804;DHT22;37205;51.434;6.756;2022-08-21T08:37:18;19.70;99.90
50804;DHT22;37205;51.434;6.756;2022-08-21T08:39:44;19.70;99.90
50804;DHT22;37205;51.434;6.756;2022-08-21T08:44:43;19.80;99.90
50804;DHT22;37205;51.434;6.756;2022-08-21T08:47:12;19.90;99.90
50804;DHT22;37205;51.434;6.756;2022-08-21T08:50:06;20.00;99.90
50804;DHT22;37205;51.434;6.756;2022-08-21T08:52:36;20.00;99.90
50804;DHT22;37205;51.434;6.756;2022-08-21T08:57:37;20.20;99.90
50804;DHT22;37205;51.434;6.756;2022-08-21T09:00:09;20.30;99.90
50804;DHT22;37205;51.434;6.756;2022-08-21T09:02:39;20.30;99.90
50804;DHT22;37205;51.434;6.756;2022-08-21T09:05:06;20.20;99.90
50804;DHT22;37205;51.434;6.756;2022-08-21T09:08:14;20.20;99.90
50804;DHT22;37205;51.434;6.756;2022-08-21T09:11:08;20.20;99.90
50804;DHT22;37205;51.434;6.756;2022-08-21T09:14:01;20.20;99.90
50804;DHT22;37205;51.434;6.756;2022-08-21T09:17:02;20.30;99.90
50804;DHT22;37205;51.434;6.756;2022-08-21T09:25:23;20.30;99.90
50804;DHT22;37205;51.434;6.756;2022-08-21T09:27:49;20.40;99.90
50804;DHT22;37205;51.434;6.756;2022-08-21T09:30:17;20.40;99.90
50804;DHT22;37205;51.434;6.756;2022-08-21T09:32:43;20.40;99.90
50804;DHT22;37205;51.434;6.756;2022-08-21T09:37:51;20.50;99.90
50804;DHT22;37205;51.434;6.756;2022-08-21T09:42:55;20.50;99.90
50804;DHT22;37205;51.434;6.756;2022-08-21T09:45:21;20.60;99.90
50804;DHT22;37205;51.434;6.756;2022-08-21T09:47:47;20.80;99.90
50804;DHT22;37205;51.434;6.756;2022-08-21T09:50:22;20.80;99.90
50804;DHT22;37205;51.434;6.756;2022-08-21T09:52:57;20.90;99.90
50804;DHT22;37205;51.434;6.756;2022-08-21T09:55:34;21.00;99.90
50804;DHT22;37205;51.434;6.756;2022-08-21T09:58:20;21.00;99.90
50804;DHT22;37205;51.434;6.756;2022-08-21T10:00:45;21.10;99.90
50804;DHT22;37205;51.434;6.756;2022-08-21T10:03:21;21.10;99.90
50804;DHT22;37205;51.434;6.756;2022-08-21T10:06:01;21.20;99.90
50804;DHT22;37205;51.434;6.756;2022-08-21T10:08:31;21.20;99.90
50804;DHT22;37205;51.434;6.756;2022-08-21T10:11:07;21.30;99.90
50804;DHT22;37205;51.434;6.756;2022-08-21T10:16:25;21.50;99.90
50804;DHT22;37205;51.434;6.756;2022-08-21T10:30:16;21.80;99.90
50804;DHT22;37205;51.434;6.756;2022-08-21T10:32:59;21.80;99.90
50804;DHT22;37205;51.434;6.756;2022-08-21T10:35:29;21.90;99.90
50804;DHT22;37205;51.434;6.756;2022-08-21T10:40:45;22.00;99.90
50804;DHT22;37205;51.434;6.756;2022-08-21T10:43:52;22.10;99.90
50804;DHT22;37205;51.434;6.756;2022-08-21T10:46:50;22.20;99.90
50804;DHT22;37205;51.434;6.756;2022-08-21T10:55:02;22.40;99.90
50804;DHT22;37205;51.434;6.756;2022-08-21T10:57:42;22.40;99.90
50804;DHT22;37205;51.434;6.756;2022-08-21T11:00:13;22.40;99.90
50804;DHT22;37205;51.434;6.756;2022-08-21T11:02:49;22.40;99.90
50804;DHT22;37205;51.434;6.756;2022-08-21T11:07:55;22.50;99.90
50804;DHT22;37205;51.434;6.756;2022-08-21T11:10:28;22.50;99.90
50804;DHT22;37205;51.434;6.756;2022-08-21T11:13:08;22.50;99.90
50804;DHT22;37205;51.434;6.756;2022-08-21T11:15:58;22.50;99.90
50804;DHT22;37205;51.434;6.756;2022-08-21T11:18:33;22.60;99.90
50804;DHT22;37205;51.434;6.756;2022-08-21T11:26:15;22.80;99.90
50804;DHT22;37205;51.434;6.756;2022-08-21T11:28:54;22.70;99.90
50804;DHT22;37205;51.434;6.756;2022-08-21T11:36:42;22.90;99.90
50804;DHT22;37205;51.434;6.756;2022-08-21T11:39:24;22.90;99.90
50804;DHT22;37205;51.434;6.756;2022-08-21T11:47:22;23.00;99.90
50804;DHT22;37205;51.434;6.756;2022-08-21T11:50:16;23.00;99.90
50804;DHT22;37205;51.434;6.756;2022-08-21T11:52:53;23.00;99.90
50804;DHT22;37205;51.434;6.756;2022-08-21T11:55:54;23.00;99.90
50804;DHT22;37205;51.434;6.756;2022-08-21T11:58:30;23.10;99.90
50804;DHT22;37205;51.434;6.756;2022-08-21T12:01:05;23.20;99.90
50804;DHT22;37205;51.434;6.756;2022-08-21T12:03:40;23.30;99.90
50804;DHT22;37205;51.434;6.756;2022-08-21T12:06:11;23.40;99.90
50804;DHT22;37205;51.434;6.756;2022-08-21T12:08:45;23.40;99.90
50804;DHT22;37205;51.434;6.756;2022-08-21T12:16:38;23.50;99.90
50804;DHT22;37205;51.434;6.756;2022-08-21T12:22:12;23.60;99.90
50804;DHT22;37205;51.434;6.756;2022-08-21T12:24:50;23.60;99.90
50804;DHT22;37205;51.434;6.756;2022-08-21T12:30:06;23.70;99.90
50804;DHT22;37205;51.434;6.756;2022-08-21T12:32:46;23.80;99.90
50804;DHT22;37205;51.434;6.756;2022-08-21T12:35:17;23.80;99.90
50804;DHT22;37205;51.434;6.756;2022-08-21T12:37:47;23.80;99.90
50804;DHT22;37205;51.434;6.756;2022-08-21T12:40:31;23.90;99.90
50804;DHT22;37205;51.434;6.756;2022-08-21T12:42:59;24.00;99.90
50804;DHT22;37205;51.434;6.756;2022-08-21T12:47:58;24.00;99.90
50804;DHT22;37205;51.434;6.756;2022-08-21T12:50:43;24.10;99.90
50804;DHT22;37205;51.434;6.756;2022-08-21T12:55:41;24.10;99.90
50804;DHT22;37205;51.434;6.756;2022-08-21T12:58:07;24.20;99.90
50804;DHT22;37205;51.434;6.756;2022-08-21T13:00:48;24.30;99.90
50804;DHT22;37205;51.434;6.756;2022-08-21T13:03:14;24.30;99.90
50804;DHT22;37205;51.434;6.756;2022-08-21T13:05:40;24.30;99.90
50804;DHT22;37205;51.434;6.756;2022-08-21T13:08:08;24.30;99.90
50804;DHT22;37205;51.434;6.756;2022-08-21T13:10:36;24.30;99.90
50804;DHT22;37205;51.434;6.756;2022-08-21T13:13:20;24.20;99.90
50804;DHT22;37205;51.434;6.756;2022-08-21T13:15:46;24.30;99.90
50804;DHT22;37205;51.434;6.756;2022-08-21T13:18:24;24.40;99.90
50804;DHT22;37205;51.434;6.756;2022-08-21T13:20:50;24.50;99.90
50804;DHT22;37205;51.434;6.756;2022-08-21T13:23:24;24.50;99.90
50804;DHT22;37205;51.434;6.756;2022-08-21T13:25:49;24.50;99.90
50804;DHT22;37205;51.434;6.756;2022-08-21T13:28:15;24.60;99.90
50804;DHT22;37205;51.434;6.756;2022-08-21T13:30:59;24.60;99.90
50804;DHT22;37205;51.434;6.756;2022-08-21T13:33:27;24.60;99.90
50804;DHT22;37205;51.434;6.756;2022-08-21T13:38:35;24.90;99.90
50804;DHT22;37205;51.434;6.756;2022-08-21T13:43:45;25.30;99.90
50804;DHT22;37205;51.434;6.756;2022-08-21T13:46:13;25.60;99.90
50804;DHT22;37205;51.434;6.756;2022-08-21T13:48:40;25.90;99.90
50804;DHT22;37205;51.434;6.756;2022-08-21T13:51:06;26.30;99.30
50804;DHT22;37205;51.434;6.756;2022-08-21T13:56:08;26.50;98.20
50804;DHT22;37205;51.434;6.756;2022-08-21T13:58:47;26.70;98.10
50804;DHT22;37205;51.434;6.756;2022-08-21T14:01:28;26.90;97.50
50804;DHT22;37205;51.434;6.756;2022-08-21T14:04:00;26.80;96.40
50804;DHT22;37205;51.434;6.756;2022-08-21T14:06:33;26.90;96.90
50804;DHT22;37205;51.434;6.756;2022-08-21T14:09:25;27.00;96.50
50804;DHT22;37205;51.434;6.756;2022-08-21T14:11:56;26.80;96.80
50804;DHT22;37205;51.434;6.756;2022-08-21T14:14:26;26.80;96.50
50804;DHT22;37205;51.434;6.756;2022-08-21T14:16:58;26.70;96.40
50804;DHT22;37205;51.434;6.756;2022-08-21T14:19:34;26.70;96.90
50804;DHT22;37205;51.434;6.756;2022-08-21T14:22:00;26.50;97.40
50804;DHT22;37205;51.434;6.756;2022-08-21T14:24:29;26.50;98.00
50804;DHT22;37205;51.434;6.756;2022-08-21T14:27:04;26.70;98.10
50804;DHT22;37205;51.434;6.756;2022-08-21T14:29:40;26.80;97.80
50804;DHT22;37205;51.434;6.756;2022-08-21T14:32:17;26.80;97.30
50804;DHT22;37205;51.434;6.756;2022-08-21T14:34:44;27.10;97.30
50804;DHT22;37205;51.434;6.756;2022-08-21T14:37:10;27.50;97.20
50804;DHT22;37205;51.434;6.756;2022-08-21T14:39:36;28.00;97.20
50804;DHT22;37205;51.434;6.756;2022-08-21T14:42:02;28.00;96.00
50804;DHT22;37205;51.434;6.756;2022-08-21T14:44:28;27.90;95.90
50804;DHT22;37205;51.434;6.756;2022-08-21T14:46:56;28.00;96.00
50804;DHT22;37205;51.434;6.756;2022-08-21T14:49:23;28.10;95.40
50804;DHT22;37205;51.434;6.756;2022-08-21T14:51:51;28.30;95.20
50804;DHT22;37205;51.434;6.756;2022-08-21T14:54:23;28.50;95.10
50804;DHT22;37205;51.434;6.756;2022-08-21T14:56:49;28.30;94.30
50804;DHT22;37205;51.434;6.756;2022-08-21T14:59:17;28.20;94.70
50804;DHT22;37205;51.434;6.756;2022-08-21T15:01:45;28.00;94.40
50804;DHT22;37205;51.434;6.756;2022-08-21T15:04:10;28.20;94.90
50804;DHT22;37205;51.434;6.756;2022-08-21T15:06:36;28.30;94.50
50804;DHT22;37205;51.434;6.756;2022-08-21T15:09:02;28.50;93.90
50804;DHT22;37205;51.434;6.756;2022-08-21T15:11:33;28.60;93.40
50804;DHT22;37205;51.434;6.756;2022-08-21T15:14:02;29.00;93.80
50804;DHT22;37205;51.434;6.756;2022-08-21T15:16:28;29.60;93.00
50804;DHT22;37205;51.434;6.756;2022-08-21T15:18:55;29.90;92.10
50804;DHT22;37205;51.434;6.756;2022-08-21T15:21:23;30.20;91.80
50804;DHT22;37205;51.434;6.756;2022-08-21T15:23:49;30.40;91.20
50804;DHT22;37205;51.434;6.756;2022-08-21T15:26:15;30.80;90.90
50804;DHT22;37205;51.434;6.756;2022-08-21T15:28:42;31.10;90.30
50804;DHT22;37205;51.434;6.756;2022-08-21T15:31:07;31.10;90.10
50804;DHT22;37205;51.434;6.756;2022-08-21T15:33:33;31.10;90.20
50804;DHT22;37205;51.434;6.756;2022-08-21T15:35:59;31.50;89.30
50804;DHT22;37205;51.434;6.756;2022-08-21T15:38:25;31.70;88.90
50804;DHT22;37205;51.434;6.756;2022-08-21T15:40:53;31.30;86.80
50804;DHT22;37205;51.434;6.756;2022-08-21T15:43:27;30.30;88.70
50804;DHT22;37205;51.434;6.756;2022-08-21T15:45:54;30.90;88.20
50804;DHT22;37205;51.434;6.756;2022-08-21T15:48:19;31.00;86.30
50804;DHT22;37205;51.434;6.756;2022-08-21T15:50:46;31.10;85.20
50804;DHT22;37205;51.434;6.756;2022-08-21T15:53:12;31.00;84.60
50804;DHT22;37205;51.434;6.756;2022-08-21T15:55:38;30.60;85.70
50804;DHT22;37205;51.434;6.756;2022-08-21T15:58:05;30.40;84.60
50804;DHT22;37205;51.434;6.756;2022-08-21T16:00:34;29.80;84.00
50804;DHT22;37205;51.434;6.756;2022-08-21T16:03:03;29.90;84.50
50804;DHT22;37205;51.434;6.756;2022-08-21T16:05:29;30.10;85.10
50804;DHT22;37205;51.434;6.756;2022-08-21T16:07:57;30.20;84.90
50804;DHT22;37205;51.434;6.756;2022-08-21T16:10:23;30.10;83.80
50804;DHT22;37205;51.434;6.756;2022-08-21T16:13:02;29.40;84.30
50804;DHT22;37205;51.434;6.756;2022-08-21T16:15:28;28.80;85.20
50804;DHT22;37205;51.434;6.756;2022-08-21T16:17:55;28.70;84.80
50804;DHT22;37205;51.434;6.756;2022-08-21T16:20:26;28.30;85.60
50804;DHT22;37205;51.434;6.756;2022-08-21T16:22:53;28.40;85.00
50804;DHT22;37205;51.434;6.756;2022-08-21T16:25:20;28.30;86.00
50804;DHT22;37205;51.434;6.756;2022-08-21T16:27:50;28.20;86.50
50804;DHT22;37205;51.434;6.756;2022-08-21T16:30:18;27.90;86.60
50804;DHT22;37205;51.434;6.756;2022-08-21T16:32:44;27.50;87.00
50804;DHT22;37205;51.434;6.756;2022-08-21T16:35:14;27.00;88.20
50804;DHT22;37205;51.434;6.756;2022-08-21T16:37:40;27.10;88.30
50804;DHT22;37205;51.434;6.756;2022-08-21T16:40:07;26.90;88.20
50804;DHT22;37205;51.434;6.756;2022-08-21T16:42:35;26.90;88.20
50804;DHT22;37205;51.434;6.756;2022-08-21T16:45:09;26.80;87.80
50804;DHT22;37205;51.434;6.756;2022-08-21T16:47:35;26.60;87.40
50804;DHT22;37205;51.434;6.756;2022-08-21T16:50:01;26.80;87.30
50804;DHT22;37205;51.434;6.756;2022-08-21T16:52:26;26.70;87.90
50804;DHT22;37205;51.434;6.756;2022-08-21T16:54:52;27.00;86.80
50804;DHT22;37205;51.434;6.756;2022-08-21T16:57:18;27.10;87.00
50804;DHT22;37205;51.434;6.756;2022-08-21T16:59:44;27.10;85.70
50804;DHT22;37205;51.434;6.756;2022-08-21T17:04:48;26.90;85.30
50804;DHT22;37205;51.434;6.756;2022-08-21T17:07:14;26.80;85.00